sensor_id;sensor_type;location;lat;lon;timestamp;temperature;humidity
14614;DHT22;7393;51.446;6.800;2023-07-31T00:01:08;17.30;1.00
14614;DHT22;7393;51.446;6.800;2023-07-31T00:03:35;17.30;1.00
14614;DHT22;7393;51.446;6.800;2023-07-31T00:06:01;17.30;1.00
14614;DHT22;7393;51.446;6.800;2023-07-31T00:08:28;17.30;1.00
14614;DHT22;7393;51.446;6.800;2023-07-31T00:10:55;17.30;1.00
14614;DHT22;7393;51.446;6.800;2023-07-31T00:13:23;17.30;1.00
14614;DHT22;7393;51.446;6.800;2023-07-31T00:15:50;17.30;1.00
14614;DHT22;7393;51.446;6.800;2023-07-31T00:18:17;17.30;1.00
14614;DHT22;7393;51.446;6.800;2023-07-31T00:20:43;17.30;1.00
14614;DHT22;7393;51.446;6.800;2023-07-31T00:23:10;17.20;1.00
14614;DHT22;7393;51.446;6.800;2023-07-31T00:25:37;17.30;1.00
14614;DHT22;7393;51.446;6.800;2023-07-31T00:28:04;17.20;1.00
14614;DHT22;7393;51.446;6.800;2023-07-31T00:30:32;17.20;1.00
14614;DHT22;7393;51.446;6.800;2023-07-31T00:32:59;17.20;1.00
14614;DHT22;7393;51.446;6.800;2023-07-31T00:35:26;17.30;1.00
14614;DHT22;7393;51.446;6.800;2023-07-31T00:37:52;17.20;1.00
14614;DHT22;7393;51.446;6.800;2023-07-31T00:40:19;17.20;1.00
14614;DHT22;7393;51.446;6.800;2023-07-31T00:42:46;17.20;1.00
14614;DHT22;7393;51.446;6.800;2023-07-31T00:45:13;17.20;1.00
14614;DHT22;7393;51.446;6.800;2023-07-31T00:47:41;17.20;1.00
14614;DHT22;7393;51.446;6.800;2023-07-31T00:50:08;17.20;1.00
14614;DHT22;7393;51.446;6.800;2023-07-31T00:52:36;17.20;1.00
14614;DHT22;7393;51.446;6.800;2023-07-31T00:55:03;17.20;1.00
14614;DHT22;7393;51.446;6.800;2023-07-31T00:57:32;17.20;1.00
14614;DHT22;7393;51.446;6.800;2023-07-31T00:59:59;17.20;1.00
14614;DHT22;7393;51.446;6.800;2023-07-31T01:02:26;17.20;1.00
14614;DHT22;7393;51.446;6.800;2023-07-31T01:04:54;17.30;1.00
14614;DHT22;7393;51.446;6.800;2023-07-31T01:07:26;17.30;1.00
14614;DHT22;7393;51.446;6.800;2023-07-31T01:10:02;17.30;1.00
14614;DHT22;7393;51.446;6.800;2023-07-31T01:12:31;17.30;1.00
14614;DHT22;7393;51.446;6.800;2023-07-31T01:15:05;17.30;1.00
14614;DHT22;7393;51.446;6.800;2023-07-31T01:17:36;17.20;1.00
14614;DHT22;7393;51.446;6.800;2023-07-31T01:20:08;17.30;1.00
14614;DHT22;7393;51.446;6.800;2023-07-31T01:22:54;17.30;1.00
14614;DHT22;7393;51.446;6.800;2023-07-31T01:25:50;17.20;1.00
14614;DHT22;7393;51.446;6.800;2023-07-31T01:28:23;17.30;1.00
14614;DHT22;7393;51.446;6.800;2023-07-31T01:30:53;17.30;1.00
14614;DHT22;7393;51.446;6.800;2023-07-31T01:33:22;17.30;1.00
14614;DHT22;7393;51.446;6.800;2023-07-31T01:35:49;17.30;1.00
14614;DHT22;7393;51.446;6.800;2023-07-31T01:38:20;17.20;1.00
14614;DHT22;7393;51.446;6.800;2023-07-31T01:40:52;17.20;1.00
14614;DHT22;7393;51.446;6.800;2023-07-31T01:43:19;17.20;1.00
14614;DHT22;7393;51.446;6.800;2023-07-31T01:45:46;17.30;1.00
14614;DHT22;7393;51.446;6.800;2023-07-31T01:48:13;17.20;1.00
14614;DHT22;7393;51.446;6.800;2023-07-31T01:50:40;17.30;1.00
14614;DHT22;7393;51.446;6.800;2023-07-31T01:53:06;17.30;1.00
14614;DHT22;7393;51.446;6.800;2023-07-31T01:55:33;17.30;1.00
14614;DHT22;7393;51.446;6.800;2023-07-31T01:58:01;17.20;1.00
14614;DHT22;7393;51.446;6.800;2023-07-31T02:00:28;17.30;1.00
14614;DHT22;7393;51.446;6.800;2023-07-31T02:02:55;17.20;1.00
14614;DHT22;7393;51.446;6.800;2023-07-31T02:05:22;17.20;1.00
14614;DHT22;7393;51.446;6.800;2023-07-31T02:07:49;17.20;1.00
14614;DHT22;7393;51.446;6.800;2023-07-31T02:10:15;17.20;1.00
14614;DHT22;7393;51.446;6.800;2023-07-31T02:12:42;17.30;1.00
14614;DHT22;7393;51.446;6.800;2023-07-31T02:15:11;17.30;1.00
14614;DHT22;7393;51.446;6.800;2023-07-31T02:17:38;17.30;1.00
14614;DHT22;7393;51.446;6.800;2023-07-31T02:20:05;17.30;1.00
14614;DHT22;7393;51.446;6.800;2023-07-31T02:22:32;17.30;1.00
14614;DHT22;7393;51.446;6.800;2023-07-31T02:24:59;17.30;1.00
14614;DHT22;7393;51.446;6.800;2023-07-31T02:27:26;17.30;1.00
14614;DHT22;7393;51.446;6.800;2023-07-31T02:29:53;17.30;1.00
14614;DHT22;7393;51.446;6.800;2023-07-31T02:32:21;17.30;1.00
14614;DHT22;7393;51.446;6.800;2023-07-31T02:34:48;17.30;1.00
14614;DHT22;7393;51.446;6.800;2023-07-31T02:37:15;17.30;1.00
14614;DHT22;7393;51.446;6.800;2023-07-31T02:39:42;17.30;1.00
14614;DHT22;7393;51.446;6.800;2023-07-31T02:42:09;17.20;1.00
14614;DHT22;7393;51.446;6.800;2023-07-31T02:44:36;17.20;1.00
14614;DHT22;7393;51.446;6.800;2023-07-31T02:47:03;17.20;1.00
14614;DHT22;7393;51.446;6.800;2023-07-31T02:49:31;17.20;1.00
14614;DHT22;7393;51.446;6.800;2023-07-31T02:51:58;17.20;1.00
14614;DHT22;7393;51.446;6.800;2023-07-31T02:54:25;17.20;1.00
14614;DHT22;7393;51.446;6.800;2023-07-31T02:56:51;17.20;1.00
14614;DHT22;7393;51.446;6.800;2023-07-31T02:59:18;17.30;1.00
14614;DHT22;7393;51.446;6.800;2023-07-31T03:01:45;17.20;1.00
14614;DHT22;7393;51.446;6.800;2023-07-31T03:04:12;17.20;1.00
14614;DHT22;7393;51.446;6.800;2023-07-31T03:06:40;17.30;1.00
14614;DHT22;7393;51.446;6.800;2023-07-31T03:09:07;17.30;1.00
14614;DHT22;7393;51.446;6.800;2023-07-31T03:11:34;17.30;1.00
14614;DHT22;7393;51.446;6.800;2023-07-31T03:14:00;17.20;1.00
14614;DHT22;7393;51.446;6.800;2023-07-31T03:16:27;17.30;1.00
14614;DHT22;7393;51.446;6.800;2023-07-31T03:18:54;17.30;1.00
14614;DHT22;7393;51.446;6.800;2023-07-31T03:21:21;17.30;1.00
14614;DHT22;7393;51.446;6.800;2023-07-31T03:23:49;17.30;1.00
14614;DHT22;7393;51.446;6.800;2023-07-31T03:26:16;17.30;1.00
14614;DHT22;7393;51.446;6.800;2023-07-31T03:28:43;17.30;1.00
14614;DHT22;7393;51.446;6.800;2023-07-31T03:31:10;17.30;1.00
14614;DHT22;7393;51.446;6.800;2023-07-31T03:33:37;17.30;1.00
14614;DHT22;7393;51.446;6.800;2023-07-31T03:36:04;17.40;1.00
14614;DHT22;7393;51.446;6.800;2023-07-31T03:38:31;17.40;1.00
14614;DHT22;7393;51.446;6.800;2023-07-31T03:40:59;17.30;1.00
14614;DHT22;7393;51.446;6.800;2023-07-31T03:43:27;17.30;1.00
14614;DHT22;7393;51.446;6.800;2023-07-31T03:45:54;17.40;1.00
14614;DHT22;7393;51.446;6.800;2023-07-31T03:48:21;17.40;1.00
14614;DHT22;7393;51.446;6.800;2023-07-31T03:50:48;17.40;1.00
14614;DHT22;7393;51.446;6.800;2023-07-31T03:53:15;17.50;1.00
14614;DHT22;7393;51.446;6.800;2023-07-31T03:55:41;17.50;1.00
14614;DHT22;7393;51.446;6.800;2023-07-31T03:58:10;17.50;1.00
14614;DHT22;7393;51.446;6.800;2023-07-31T04:00:36;17.50;1.00
14614;DHT22;7393;51.446;6.800;2023-07-31T04:03:03;17.50;1.00
14614;DHT22;7393;51.446;6.800;2023-07-31T04:05:32;17.50;1.00
14614;DHT22;7393;51.446;6.800;2023-07-31T04:07:59;17.50;1.00
14614;DHT22;7393;51.446;6.800;2023-07-31T04:10:25;17.50;1.00
14614;DHT22;7393;51.446;6.800;2023-07-31T04:12:52;17.50;1.00
14614;DHT22;7393;51.446;6.800;2023-07-31T04:15:20;17.50;1.00
14614;DHT22;7393;51.446;6.800;2023-07-31T04:17:47;17.50;1.00
14614;DHT22;7393;51.446;6.800;2023-07-31T04:20:14;17.50;1.00
14614;DHT22;7393;51.446;6.800;2023-07-31T04:22:41;17.50;1.00
14614;DHT22;7393;51.446;6.800;2023-07-31T04:25:08;17.50;1.00
14614;DHT22;7393;51.446;6.800;2023-07-31T04:27:35;17.60;1.00
14614;DHT22;7393;51.446;6.800;2023-07-31T04:30:02;17.60;1.00
14614;DHT22;7393;51.446;6.800;2023-07-31T04:32:30;17.60;1.00
14614;DHT22;7393;51.446;6.800;2023-07-31T04:34:57;17.60;1.00
14614;DHT22;7393;51.446;6.800;2023-07-31T04:37:24;17.60;1.00
14614;DHT22;7393;51.446;6.800;2023-07-31T04:39:50;17.60;1.00
14614;DHT22;7393;51.446;6.800;2023-07-31T04:42:17;17.60;1.00
14614;DHT22;7393;51.446;6.800;2023-07-31T04:44:44;17.70;1.00
14614;DHT22;7393;51.446;6.800;2023-07-31T04:47:11;17.60;1.00
14614;DHT22;7393;51.446;6.800;2023-07-31T04:49:39;17.70;1.00
14614;DHT22;7393;51.446;6.800;2023-07-31T04:52:06;17.70;1.00
14614;DHT22;7393;51.446;6.800;2023-07-31T04:54:33;17.60;1.00
14614;DHT22;7393;51.446;6.800;2023-07-31T04:57:00;17.70;1.00
14614;DHT22;7393;51.446;6.800;2023-07-31T04:59:26;17.70;1.00
14614;DHT22;7393;51.446;6.800;2023-07-31T05:01:53;17.70;1.00
14614;DHT22;7393;51.446;6.800;2023-07-31T05:04:20;17.80;1.00
14614;DHT22;7393;51.446;6.800;2023-07-31T05:06:48;17.80;1.00
14614;DHT22;7393;51.446;6.800;2023-07-31T05:09:15;17.80;1.00
14614;DHT22;7393;51.446;6.800;2023-07-31T05:11:43;17.80;1.00
14614;DHT22;7393;51.446;6.800;2023-07-31T05:14:10;17.80;1.00
14614;DHT22;7393;51.446;6.800;2023-07-31T05:16:37;17.80;1.00
14614;DHT22;7393;51.446;6.800;2023-07-31T05:19:03;17.80;1.00
14614;DHT22;7393;51.446;6.800;2023-07-31T05:21:30;17.80;1.00
14614;DHT22;7393;51.446;6.800;2023-07-31T05:23:58;17.80;1.00
14614;DHT22;7393;51.446;6.800;2023-07-31T05:26:25;17.80;1.00
14614;DHT22;7393;51.446;6.800;2023-07-31T05:28:52;17.80;1.00
14614;DHT22;7393;51.446;6.800;2023-07-31T05:31:19;17.80;1.00
14614;DHT22;7393;51.446;6.800;2023-07-31T05:33:46;17.80;1.00
14614;DHT22;7393;51.446;6.800;2023-07-31T05:36:13;17.80;1.00
14614;DHT22;7393;51.446;6.800;2023-07-31T05:38:39;17.80;1.00
14614;DHT22;7393;51.446;6.800;2023-07-31T05:41:09;17.80;1.00
14614;DHT22;7393;51.446;6.800;2023-07-31T05:43:35;17.80;1.00
14614;DHT22;7393;51.446;6.800;2023-07-31T05:46:02;17.80;1.00
14614;DHT22;7393;51.446;6.800;2023-07-31T05:48:29;17.80;1.00
14614;DHT22;7393;51.446;6.800;2023-07-31T05:50:56;17.80;1.00
14614;DHT22;7393;51.446;6.800;2023-07-31T05:53:23;17.90;1.00
14614;DHT22;7393;51.446;6.800;2023-07-31T05:55:50;17.80;1.00
14614;DHT22;7393;51.446;6.800;2023-07-31T05:58:18;17.80;1.00
14614;DHT22;7393;51.446;6.800;2023-07-31T06:00:45;17.80;1.00
14614;DHT22;7393;51.446;6.800;2023-07-31T06:03:11;17.80;1.00
14614;DHT22;7393;51.446;6.800;2023-07-31T06:05:38;17.80;1.00
14614;DHT22;7393;51.446;6.800;2023-07-31T06:08:05;17.80;1.00
14614;DHT22;7393;51.446;6.800;2023-07-31T06:10:32;17.80;1.00
14614;DHT22;7393;51.446;6.800;2023-07-31T06:13:00;17.90;1.00
14614;DHT22;7393;51.446;6.800;2023-07-31T06:15:28;17.90;1.00
14614;DHT22;7393;51.446;6.800;2023-07-31T06:17:55;17.90;1.00
14614;DHT22;7393;51.446;6.800;2023-07-31T06:20:23;17.90;1.00
14614;DHT22;7393;51.446;6.800;2023-07-31T06:22:50;17.90;1.00
14614;DHT22;7393;51.446;6.800;2023-07-31T06:25:16;18.00;1.00
14614;DHT22;7393;51.446;6.800;2023-07-31T06:27:43;18.00;1.00
14614;DHT22;7393;51.446;6.800;2023-07-31T06:30:11;17.90;1.00
14614;DHT22;7393;51.446;6.800;2023-07-31T06:32:39;17.90;1.00
14614;DHT22;7393;51.446;6.800;2023-07-31T06:35:07;17.80;1.00
14614;DHT22;7393;51.446;6.800;2023-07-31T06:37:34;17.80;1.00
14614;DHT22;7393;51.446;6.800;2023-07-31T06:40:01;17.80;1.00
14614;DHT22;7393;51.446;6.800;2023-07-31T06:42:27;17.80;1.00
14614;DHT22;7393;51.446;6.800;2023-07-31T06:44:54;17.80;1.00
14614;DHT22;7393;51.446;6.800;2023-07-31T06:47:21;17.80;1.00
14614;DHT22;7393;51.446;6.800;2023-07-31T06:49:49;17.80;1.00
14614;DHT22;7393;51.446;6.800;2023-07-31T06:52:16;17.80;1.00
14614;DHT22;7393;51.446;6.800;2023-07-31T06:54:43;17.80;1.00
14614;DHT22;7393;51.446;6.800;2023-07-31T06:57:09;17.80;1.00
14614;DHT22;7393;51.446;6.800;2023-07-31T06:59:36;17.80;1.00
14614;DHT22;7393;51.446;6.800;2023-07-31T07:02:04;17.70;1.00
14614;DHT22;7393;51.446;6.800;2023-07-31T07:04:31;17.70;1.00
14614;DHT22;7393;51.446;6.800;2023-07-31T07:06:59;17.70;1.00
14614;DHT22;7393;51.446;6.800;2023-07-31T07:09:26;17.60;1.00
14614;DHT22;7393;51.446;6.800;2023-07-31T07:11:53;17.60;1.00
14614;DHT22;7393;51.446;6.800;2023-07-31T07:14:19;17.60;1.00
14614;DHT22;7393;51.446;6.800;2023-07-31T07:16:50;17.70;1.00
14614;DHT22;7393;51.446;6.800;2023-07-31T07:19:17;17.70;1.00
14614;DHT22;7393;51.446;6.800;2023-07-31T07:21:44;17.60;1.00
14614;DHT22;7393;51.446;6.800;2023-07-31T07:24:12;17.60;1.00
14614;DHT22;7393;51.446;6.800;2023-07-31T07:26:39;17.60;1.00
14614;DHT22;7393;51.446;6.800;2023-07-31T07:29:06;17.60;1.00
14614;DHT22;7393;51.446;6.800;2023-07-31T07:31:33;17.60;1.00
14614;DHT22;7393;51.446;6.800;2023-07-31T07:34:00;17.60;1.00
14614;DHT22;7393;51.446;6.800;2023-07-31T07:36:28;17.60;1.00
14614;DHT22;7393;51.446;6.800;2023-07-31T07:38:54;17.50;1.00
14614;DHT22;7393;51.446;6.800;2023-07-31T07:41:23;17.60;1.00
14614;DHT22;7393;51.446;6.800;2023-07-31T07:43:50;17.60;1.00
14614;DHT22;7393;51.446;6.800;2023-07-31T07:46:17;17.50;1.00
14614;DHT22;7393;51.446;6.800;2023-07-31T07:48:44;17.50;1.00
14614;DHT22;7393;51.446;6.800;2023-07-31T07:51:11;17.50;1.00
14614;DHT22;7393;51.446;6.800;2023-07-31T07:53:37;17.50;1.00
14614;DHT22;7393;51.446;6.800;2023-07-31T07:56:04;17.50;1.00
14614;DHT22;7393;51.446;6.800;2023-07-31T07:58:32;17.50;1.00
14614;DHT22;7393;51.446;6.800;2023-07-31T08:00:59;17.50;1.00
14614;DHT22;7393;51.446;6.800;2023-07-31T08:03:26;17.50;1.00
14614;DHT22;7393;51.446;6.800;2023-07-31T08:05:53;17.50;1.00
14614;DHT22;7393;51.446;6.800;2023-07-31T08:08:24;17.50;1.00
14614;DHT22;7393;51.446;6.800;2023-07-31T08:10:50;17.40;1.00
14614;DHT22;7393;51.446;6.800;2023-07-31T08:13:17;17.50;1.00
14614;DHT22;7393;51.446;6.800;2023-07-31T08:15:45;17.50;1.00
14614;DHT22;7393;51.446;6.800;2023-07-31T08:18:12;17.50;1.00
14614;DHT22;7393;51.446;6.800;2023-07-31T08:20:39;17.40;1.00
14614;DHT22;7393;51.446;6.800;2023-07-31T08:23:06;17.40;1.00
14614;DHT22;7393;51.446;6.800;2023-07-31T08:25:34;17.40;1.00
14614;DHT22;7393;51.446;6.800;2023-07-31T08:28:01;17.40;1.00
14614;DHT22;7393;51.446;6.800;2023-07-31T08:30:28;17.40;1.00
14614;DHT22;7393;51.446;6.800;2023-07-31T08:32:57;17.40;1.00
14614;DHT22;7393;51.446;6.800;2023-07-31T08:35:24;17.40;1.00
14614;DHT22;7393;51.446;6.800;2023-07-31T08:37:50;17.40;1.00
14614;DHT22;7393;51.446;6.800;2023-07-31T08:40:17;17.30;1.00
14614;DHT22;7393;51.446;6.800;2023-07-31T08:42:45;17.30;1.00
14614;DHT22;7393;51.446;6.800;2023-07-31T08:45:14;17.30;1.00
14614;DHT22;7393;51.446;6.800;2023-07-31T08:47:44;17.30;1.00
14614;DHT22;7393;51.446;6.800;2023-07-31T08:50:13;17.40;1.00
14614;DHT22;7393;51.446;6.800;2023-07-31T08:52:40;17.30;1.00
14614;DHT22;7393;51.446;6.800;2023-07-31T08:55:07;17.30;1.00
14614;DHT22;7393;51.446;6.800;2023-07-31T08:57:36;17.40;1.00
14614;DHT22;7393;51.446;6.800;2023-07-31T09:00:05;17.30;1.00
14614;DHT22;7393;51.446;6.800;2023-07-31T09:02:37;17.30;1.00
14614;DHT22;7393;51.446;6.800;2023-07-31T09:05:07;17.30;1.00
14614;DHT22;7393;51.446;6.800;2023-07-31T09:07:35;17.30;1.00
14614;DHT22;7393;51.446;6.800;2023-07-31T09:10:03;17.30;1.00
14614;DHT22;7393;51.446;6.800;2023-07-31T09:12:30;17.30;1.00
14614;DHT22;7393;51.446;6.800;2023-07-31T09:14:57;17.30;1.00
14614;DHT22;7393;51.446;6.800;2023-07-31T09:17:30;17.30;1.00
14614;DHT22;7393;51.446;6.800;2023-07-31T09:19:57;17.30;1.00
14614;DHT22;7393;51.446;6.800;2023-07-31T09:22:31;17.40;1.00
14614;DHT22;7393;51.446;6.800;2023-07-31T09:25:14;17.40;1.00
14614;DHT22;7393;51.446;6.800;2023-07-31T09:27:46;17.40;1.00
14614;DHT22;7393;51.446;6.800;2023-07-31T09:30:14;17.40;1.00
14614;DHT22;7393;51.446;6.800;2023-07-31T09:32:41;17.40;1.00
14614;DHT22;7393;51.446;6.800;2023-07-31T09:35:19;17.50;1.00
14614;DHT22;7393;51.446;6.800;2023-07-31T09:37:49;17.50;1.00
14614;DHT22;7393;51.446;6.800;2023-07-31T09:40:30;17.50;1.00
14614;DHT22;7393;51.446;6.800;2023-07-31T09:42:59;17.50;1.00
14614;DHT22;7393;51.446;6.800;2023-07-31T09:45:26;17.60;1.00
14614;DHT22;7393;51.446;6.800;2023-07-31T09:47:53;17.60;1.00
14614;DHT22;7393;51.446;6.800;2023-07-31T09:50:21;17.60;1.00
14614;DHT22;7393;51.446;6.800;2023-07-31T09:52:49;17.60;1.00
14614;DHT22;7393;51.446;6.800;2023-07-31T09:55:16;17.60;1.00
14614;DHT22;7393;51.446;6.800;2023-07-31T09:57:46;17.60;1.00
14614;DHT22;7393;51.446;6.800;2023-07-31T10:00:14;17.60;1.00
14614;DHT22;7393;51.446;6.800;2023-07-31T10:02:44;17.70;1.00
14614;DHT22;7393;51.446;6.800;2023-07-31T10:05:13;17.70;1.00
14614;DHT22;7393;51.446;6.800;2023-07-31T10:07:44;17.70;1.00
14614;DHT22;7393;51.446;6.800;2023-07-31T10:10:13;17.70;1.00
14614;DHT22;7393;51.446;6.800;2023-07-31T10:12:41;17.70;1.00
14614;DHT22;7393;51.446;6.800;2023-07-31T10:15:10;17.70;1.00
14614;DHT22;7393;51.446;6.800;2023-07-31T10:17:38;17.70;1.00
14614;DHT22;7393;51.446;6.800;2023-07-31T10:20:07;17.70;1.00
14614;DHT22;7393;51.446;6.800;2023-07-31T10:22:34;17.70;1.00
14614;DHT22;7393;51.446;6.800;2023-07-31T10:25:01;17.70;1.00
14614;DHT22;7393;51.446;6.800;2023-07-31T10:27:28;17.70;1.00
14614;DHT22;7393;51.446;6.800;2023-07-31T10:29:57;17.70;1.00
14614;DHT22;7393;51.446;6.800;2023-07-31T10:32:26;17.70;1.00
14614;DHT22;7393;51.446;6.800;2023-07-31T10:34:54;17.80;1.00
14614;DHT22;7393;51.446;6.800;2023-07-31T10:37:24;17.80;1.00
14614;DHT22;7393;51.446;6.800;2023-07-31T10:39:59;17.80;1.00
14614;DHT22;7393;51.446;6.800;2023-07-31T10:42:33;17.80;1.00
14614;DHT22;7393;51.446;6.800;2023-07-31T10:45:03;17.90;1.00
14614;DHT22;7393;51.446;6.800;2023-07-31T10:47:36;18.00;1.00
14614;DHT22;7393;51.446;6.800;2023-07-31T10:50:16;18.00;1.00
14614;DHT22;7393;51.446;6.800;2023-07-31T10:52:46;18.00;1.00
14614;DHT22;7393;51.446;6.800;2023-07-31T10:55:27;18.10;1.00
14614;DHT22;7393;51.446;6.800;2023-07-31T10:57:55;18.10;1.00
14614;DHT22;7393;51.446;6.800;2023-07-31T11:00:25;18.20;1.00
14614;DHT22;7393;51.446;6.800;2023-07-31T11:03:04;18.20;1.00
14614;DHT22;7393;51.446;6.800;2023-07-31T11:05:49;18.20;1.00
14614;DHT22;7393;51.446;6.800;2023-07-31T11:08:20;18.20;1.00
14614;DHT22;7393;51.446;6.800;2023-07-31T11:10:49;18.30;1.00
14614;DHT22;7393;51.446;6.800;2023-07-31T11:13:15;18.30;1.00
14614;DHT22;7393;51.446;6.800;2023-07-31T11:15:42;18.40;1.00
14614;DHT22;7393;51.446;6.800;2023-07-31T11:18:11;18.40;1.00
14614;DHT22;7393;51.446;6.800;2023-07-31T11:20:38;18.40;1.00
14614;DHT22;7393;51.446;6.800;2023-07-31T11:23:09;18.50;1.00
14614;DHT22;7393;51.446;6.800;2023-07-31T11:25:37;18.50;1.00
14614;DHT22;7393;51.446;6.800;2023-07-31T11:28:06;18.60;1.00
14614;DHT22;7393;51.446;6.800;2023-07-31T11:30:34;18.60;1.00
14614;DHT22;7393;51.446;6.800;2023-07-31T11:33:02;18.60;1.00
14614;DHT22;7393;51.446;6.800;2023-07-31T11:35:32;18.60;1.00
14614;DHT22;7393;51.446;6.800;2023-07-31T11:37:59;18.60;1.00
14614;DHT22;7393;51.446;6.800;2023-07-31T11:40:26;18.60;1.00
14614;DHT22;7393;51.446;6.800;2023-07-31T11:42:55;18.70;1.00
14614;DHT22;7393;51.446;6.800;2023-07-31T11:45:25;18.60;1.00
14614;DHT22;7393;51.446;6.800;2023-07-31T11:47:52;18.60;1.00
14614;DHT22;7393;51.446;6.800;2023-07-31T11:50:20;18.70;1.00
14614;DHT22;7393;51.446;6.800;2023-07-31T11:52:51;18.60;1.00
14614;DHT22;7393;51.446;6.800;2023-07-31T11:55:18;18.60;1.00
14614;DHT22;7393;51.446;6.800;2023-07-31T11:57:46;18.60;1.00
14614;DHT22;7393;51.446;6.800;2023-07-31T12:00:14;18.60;1.00
14614;DHT22;7393;51.446;6.800;2023-07-31T12:02:42;18.60;1.00
14614;DHT22;7393;51.446;6.800;2023-07-31T12:05:11;18.60;1.00
14614;DHT22;7393;51.446;6.800;2023-07-31T12:07:46;18.60;1.00
14614;DHT22;7393;51.446;6.800;2023-07-31T12:10:27;18.60;1.00
14614;DHT22;7393;51.446;6.800;2023-07-31T12:13:06;18.60;1.00
14614;DHT22;7393;51.446;6.800;2023-07-31T12:15:38;18.60;1.00
14614;DHT22;7393;51.446;6.800;2023-07-31T12:18:07;18.60;1.00
14614;DHT22;7393;51.446;6.800;2023-07-31T12:20:34;18.50;1.00
14614;DHT22;7393;51.446;6.800;2023-07-31T12:23:02;18.50;1.00
14614;DHT22;7393;51.446;6.800;2023-07-31T12:25:31;18.50;1.00
14614;DHT22;7393;51.446;6.800;2023-07-31T12:28:04;18.50;1.00
14614;DHT22;7393;51.446;6.800;2023-07-31T12:30:33;18.60;1.00
14614;DHT22;7393;51.446;6.800;2023-07-31T12:33:03;18.60;1.00
14614;DHT22;7393;51.446;6.800;2023-07-31T12:35:35;18.70;1.00
14614;DHT22;7393;51.446;6.800;2023-07-31T12:38:02;18.70;1.00
14614;DHT22;7393;51.446;6.800;2023-07-31T12:40:31;18.80;1.00
14614;DHT22;7393;51.446;6.800;2023-07-31T12:42:57;18.80;1.00
14614;DHT22;7393;51.446;6.800;2023-07-31T12:45:24;18.80;1.00
14614;DHT22;7393;51.446;6.800;2023-07-31T12:47:51;18.90;1.00
14614;DHT22;7393;51.446;6.800;2023-07-31T12:50:18;18.90;1.00
14614;DHT22;7393;51.446;6.800;2023-07-31T12:52:45;18.90;1.00
14614;DHT22;7393;51.446;6.800;2023-07-31T12:55:12;18.90;1.00
14614;DHT22;7393;51.446;6.800;2023-07-31T12:57:41;18.90;1.00
14614;DHT22;7393;51.446;6.800;2023-07-31T13:00:09;18.90;1.00
14614;DHT22;7393;51.446;6.800;2023-07-31T13:02:36;18.90;1.00
14614;DHT22;7393;51.446;6.800;2023-07-31T13:05:03;18.90;1.00
14614;DHT22;7393;51.446;6.800;2023-07-31T13:07:30;18.90;1.00
14614;DHT22;7393;51.446;6.800;2023-07-31T13:09:56;18.90;1.00
14614;DHT22;7393;51.446;6.800;2023-07-31T13:12:23;18.90;1.00
14614;DHT22;7393;51.446;6.800;2023-07-31T13:14:51;18.90;1.00
14614;DHT22;7393;51.446;6.800;2023-07-31T13:17:18;19.00;1.00
14614;DHT22;7393;51.446;6.800;2023-07-31T13:19:45;19.00;1.00
14614;DHT22;7393;51.446;6.800;2023-07-31T13:22:12;19.00;1.00
14614;DHT22;7393;51.446;6.800;2023-07-31T13:24:39;19.00;1.00
14614;DHT22;7393;51.446;6.800;2023-07-31T13:27:05;19.00;1.00
14614;DHT22;7393;51.446;6.800;2023-07-31T13:29:32;19.00;1.00
14614;DHT22;7393;51.446;6.800;2023-07-31T13:32:00;19.10;1.00
14614;DHT22;7393;51.446;6.800;2023-07-31T13:34:27;19.10;1.00
14614;DHT22;7393;51.446;6.800;2023-07-31T13:36:54;19.10;1.00
14614;DHT22;7393;51.446;6.800;2023-07-31T13:39:21;19.10;1.00
14614;DHT22;7393;51.446;6.800;2023-07-31T13:41:48;19.20;1.00
14614;DHT22;7393;51.446;6.800;2023-07-31T13:44:15;19.20;1.00
14614;DHT22;7393;51.446;6.800;2023-07-31T13:46:42;19.30;1.00
14614;DHT22;7393;51.446;6.800;2023-07-31T13:49:10;19.30;1.00
14614;DHT22;7393;51.446;6.800;2023-07-31T13:51:37;19.30;1.00
14614;DHT22;7393;51.446;6.800;2023-07-31T13:54:05;19.30;1.00
14614;DHT22;7393;51.446;6.800;2023-07-31T13:56:33;19.30;1.00
14614;DHT22;7393;51.446;6.800;2023-07-31T13:58:59;19.30;1.00
14614;DHT22;7393;51.446;6.800;2023-07-31T14:01:27;19.30;1.00
14614;DHT22;7393;51.446;6.800;2023-07-31T14:03:54;19.40;1.00
14614;DHT22;7393;51.446;6.800;2023-07-31T14:06:22;19.40;1.00
14614;DHT22;7393;51.446;6.800;2023-07-31T14:08:49;19.50;1.00
14614;DHT22;7393;51.446;6.800;2023-07-31T14:11:15;19.50;1.00
14614;DHT22;7393;51.446;6.800;2023-07-31T14:13:42;19.60;1.00
14614;DHT22;7393;51.446;6.800;2023-07-31T14:16:09;19.70;1.00
14614;DHT22;7393;51.446;6.800;2023-07-31T14:18:36;19.80;1.00
14614;DHT22;7393;51.446;6.800;2023-07-31T14:21:03;19.80;1.00
14614;DHT22;7393;51.446;6.800;2023-07-31T14:23:31;19.90;1.00
14614;DHT22;7393;51.446;6.800;2023-07-31T14:25:58;19.80;1.00
14614;DHT22;7393;51.446;6.800;2023-07-31T14:28:24;19.90;1.00
14614;DHT22;7393;51.446;6.800;2023-07-31T14:30:51;19.90;1.00
14614;DHT22;7393;51.446;6.800;2023-07-31T14:33:18;19.90;1.00
14614;DHT22;7393;51.446;6.800;2023-07-31T14:35:45;19.90;1.00
14614;DHT22;7393;51.446;6.800;2023-07-31T14:38:12;19.90;1.00
14614;DHT22;7393;51.446;6.800;2023-07-31T14:40:41;19.90;1.00
14614;DHT22;7393;51.446;6.800;2023-07-31T14:43:08;19.90;1.00
14614;DHT22;7393;51.446;6.800;2023-07-31T14:45:34;19.90;1.00
14614;DHT22;7393;51.446;6.800;2023-07-31T14:48:01;19.80;1.00
14614;DHT22;7393;51.446;6.800;2023-07-31T14:50:28;19.80;1.00
14614;DHT22;7393;51.446;6.800;2023-07-31T14:52:55;19.70;1.00
14614;DHT22;7393;51.446;6.800;2023-07-31T14:55:22;19.70;1.00
14614;DHT22;7393;51.446;6.800;2023-07-31T14:57:50;19.60;1.00
14614;DHT22;7393;51.446;6.800;2023-07-31T15:00:17;19.60;1.00
14614;DHT22;7393;51.446;6.800;2023-07-31T15:02:44;19.50;1.00
14614;DHT22;7393;51.446;6.800;2023-07-31T15:05:10;19.50;1.00
14614;DHT22;7393;51.446;6.800;2023-07-31T15:07:37;19.50;1.00
14614;DHT22;7393;51.446;6.800;2023-07-31T15:10:05;19.40;1.00
14614;DHT22;7393;51.446;6.800;2023-07-31T15:12:32;19.40;1.00
14614;DHT22;7393;51.446;6.800;2023-07-31T15:15:01;19.40;1.00
14614;DHT22;7393;51.446;6.800;2023-07-31T15:17:27;19.40;1.00
14614;DHT22;7393;51.446;6.800;2023-07-31T15:19:55;19.40;1.00
14614;DHT22;7393;51.446;6.800;2023-07-31T15:22:22;19.40;1.00
14614;DHT22;7393;51.446;6.800;2023-07-31T15:24:50;19.40;1.00
14614;DHT22;7393;51.446;6.800;2023-07-31T15:27:16;19.40;1.00
14614;DHT22;7393;51.446;6.800;2023-07-31T15:29:43;19.40;1.00
14614;DHT22;7393;51.446;6.800;2023-07-31T15:32:11;19.50;1.00
14614;DHT22;7393;51.446;6.800;2023-07-31T15:34:38;19.50;1.00
14614;DHT22;7393;51.446;6.800;2023-07-31T15:37:05;19.50;1.00
14614;DHT22;7393;51.446;6.800;2023-07-31T15:39:32;19.50;1.00
14614;DHT22;7393;51.446;6.800;2023-07-31T15:41:59;19.50;1.00
14614;DHT22;7393;51.446;6.800;2023-07-31T15:44:25;19.50;1.00
14614;DHT22;7393;51.446;6.800;2023-07-31T15:46:53;19.60;1.00
14614;DHT22;7393;51.446;6.800;2023-07-31T15:49:21;19.60;1.00
14614;DHT22;7393;51.446;6.800;2023-07-31T15:51:47;19.60;1.00
14614;DHT22;7393;51.446;6.800;2023-07-31T15:54:14;19.60;1.00
14614;DHT22;7393;51.446;6.800;2023-07-31T15:56:41;19.60;1.00
14614;DHT22;7393;51.446;6.800;2023-07-31T15:59:08;19.60;1.00
14614;DHT22;7393;51.446;6.800;2023-07-31T16:01:35;19.60;1.00
14614;DHT22;7393;51.446;6.800;2023-07-31T16:04:02;19.50;1.00
14614;DHT22;7393;51.446;6.800;2023-07-31T16:06:30;19.50;1.00